Time;durP1;ratioP1;P1;durP2;ratioP2;P2;SDS_P1;SDS_P2;PMS_P1;PMS_P2;Temp;Humidity;BMP_temperature;BMP_pressure;BME280_temperature;BME280_humidity;BME280_pressure;Samples;Min_cycle;Max_cycle;Signal;HPM_P1;HPM_P2
2021/10/25 00:01:45;;;;;;;3.60;1.60;;;;;;;10.31;42.64;102170.08;117376;1183;23764;-57
2021/10/25 00:04:13;;;;;;;4.60;2.00;;;;;;;10.29;42.84;102166.02;117397;1185;22926;-62
2021/10/25 00:06:42;;;;;;;3.00;1.60;;;;;;;10.27;42.69;102165.80;117451;1185;23475;-62
2021/10/25 00:09:11;;;;;;;3.50;1.60;;;;;;;10.26;42.72;102168.95;117359;1182;21853;-62
2021/10/25 00:11:48;;;;;;;3.90;1.80;;;;;;;10.26;42.67;102165.98;117397;1185;23519;-63
2021/10/25 00:14:17;;;;;;;5.20;2.00;;;;;;;10.26;42.65;102169.83;117460;1184;21961;-57
2021/10/25 00:16:45;;;;;;;3.50;1.60;;;;;;;10.26;42.64;102170.52;117372;1185;22635;-63
2021/10/25 00:19:31;;;;;;;4.60;1.80;;;;;;;10.24;42.75;102170.31;117384;1185;23481;-62
2021/10/25 00:22:19;;;;;;;4.90;1.70;;;;;;;10.25;42.65;102173.31;117382;1185;21854;-58
2021/10/25 00:24:48;;;;;;;3.50;1.60;;;;;;;10.23;42.81;102176.45;117425;1185;23465;-62
2021/10/25 00:27:16;;;;;;;3.70;1.80;;;;;;;10.24;42.88;102178.21;117420;1183;21858;-59
2021/10/25 00:29:44;;;;;;;4.30;1.90;;;;;;;10.25;42.65;102184.72;117400;1185;22937;-62
2021/10/25 00:32:12;;;;;;;4.90;1.70;;;;;;;10.22;42.74;102185.73;117422;1179;23465;-62
2021/10/25 00:34:41;;;;;;;2.60;1.50;;;;;;;10.19;42.58;102189.51;117470;1180;21860;-59
2021/10/25 00:37:09;;;;;;;5.30;1.90;;;;;;;10.18;42.53;102191.79;117440;1182;23544;-62
2021/10/25 00:39:38;;;;;;;3.10;1.60;;;;;;;10.17;42.62;102192.29;117366;1179;23442;-58
2021/10/25 00:42:07;;;;;;;3.60;1.70;;;;;;;10.12;42.67;102189.76;117371;1181;21905;-59
2021/10/25 00:44:36;;;;;;;3.20;1.40;;;;;;;10.11;42.71;102191.13;117461;1183;23439;-58
2021/10/25 00:47:17;;;;;;;4.90;1.70;;;;;;;10.09;42.79;102198.48;117450;1186;21875;-58
2021/10/25 00:49:45;;;;;;;3.90;1.40;;;;;;;10.08;42.62;102198.09;117418;1179;23455;-58
2021/10/25 00:52:14;;;;;;;3.10;1.60;;;;;;;10.05;42.65;102200.32;117455;1185;21878;-63
2021/10/25 00:54:42;;;;;;;3.90;1.50;;;;;;;10.02;42.72;102200.60;117443;1184;21858;-58
2021/10/25 00:57:10;;;;;;;3.40;1.70;;;;;;;10.00;42.68;102201.98;117355;1183;23464;-59
2021/10/25 00:59:38;;;;;;;4.50;1.60;;;;;;;9.97;42.76;102199.64;117397;1185;21868;-63
2021/10/25 01:02:06;;;;;;;3.70;1.50;;;;;;;9.94;42.68;102198.17;117364;1186;23531;-58
2021/10/25 01:04:35;;;;;;;5.30;1.50;;;;;;;9.91;42.72;102205.84;117351;1183;23442;-63
2021/10/25 01:07:04;;;;;;;3.50;1.60;;;;;;;9.90;42.64;102207.04;117376;1185;23439;-58
2021/10/25 01:09:32;;;;;;;3.80;1.80;;;;;;;9.88;42.72;102213.66;117347;1185;23440;-62
2021/10/25 01:12:00;;;;;;;4.30;1.60;;;;;;;9.84;42.83;102212.17;117474;1185;23442;-63
2021/10/25 01:14:29;;;;;;;5.70;2.60;;;;;;;9.81;42.73;102210.91;117400;1180;21854;-58
2021/10/25 01:16:57;;;;;;;2.70;1.60;;;;;;;9.82;42.78;102211.27;117378;1185;21854;-58
2021/10/25 01:19:25;;;;;;;5.40;1.70;;;;;;;9.81;42.70;102212.63;117452;1186;21863;-58
2021/10/25 01:21:53;;;;;;;4.20;1.50;;;;;;;9.77;42.71;102213.27;117352;1183;21854;-58
2021/10/25 01:24:21;;;;;;;2.80;1.30;;;;;;;9.76;42.79;102215.70;117393;1176;21858;-58
2021/10/25 01:26:50;;;;;;;3.40;1.80;;;;;;;9.71;42.70;102219.29;117398;1185;23455;-62
2021/10/25 01:29:19;;;;;;;4.50;1.60;;;;;;;9.66;42.72;102220.23;117384;1183;21845;-58
2021/10/25 01:31:49;;;;;;;3.70;1.70;;;;;;;9.60;42.74;102217.30;117442;1183;23468;-62
2021/10/25 01:34:17;;;;;;;3.50;1.40;;;;;;;9.56;42.68;102217.23;117359;1182;22925;-62
2021/10/25 01:36:46;;;;;;;3.60;1.40;;;;;;;9.50;42.59;102217.09;117416;1182;21865;-63
2021/10/25 01:39:14;;;;;;;3.50;1.50;;;;;;;9.45;42.71;102220.13;117378;1182;23468;-63
2021/10/25 01:41:45;;;;;;;4.00;1.40;;;;;;;9.37;42.73;102218.21;117319;1186;23542;-58
2021/10/25 01:44:13;;;;;;;3.80;1.60;;;;;;;9.28;42.60;102221.35;117346;1182;21859;-58
2021/10/25 01:46:42;;;;;;;5.10;1.60;;;;;;;9.21;42.68;102223.82;117410;1185;21993;-58
2021/10/25 01:49:11;;;;;;;4.00;1.60;;;;;;;9.11;42.65;102226.73;117345;1183;21856;-59
2021/10/25 01:51:39;;;;;;;3.40;1.50;;;;;;;9.00;42.71;102227.53;117399;1180;21854;-58
2021/10/25 01:54:07;;;;;;;2.90;1.40;;;;;;;8.92;42.64;102235.05;117398;1185;21855;-58
2021/10/25 01:56:38;;;;;;;4.20;1.80;;;;;;;8.85;42.64;102238.20;117391;1182;23459;-63
2021/10/25 01:59:07;;;;;;;3.90;1.60;;;;;;;8.78;42.62;102239.09;117425;1186;23478;-63
2021/10/25 02:01:35;;;;;;;3.00;1.50;;;;;;;8.72;42.67;102241.90;117381;1184;21842;-59
2021/10/25 02:04:04;;;;;;;3.60;1.40;;;;;;;8.66;42.61;102242.08;117440;1183;23549;-58
2021/10/25 02:06:33;;;;;;;2.70;1.10;;;;;;;8.59;42.69;102246.84;117436;1185;23541;-62
2021/10/25 02:09:02;;;;;;;2.90;1.30;;;;;;;8.54;42.66;102250.19;117370;1185;23451;-62
2021/10/25 02:11:30;;;;;;;3.20;1.80;;;;;;;8.47;42.64;102251.39;117406;1185;21849;-61
2021/10/25 02:13:59;;;;;;;2.60;1.20;;;;;;;8.40;42.74;102252.77;117384;1183;23456;-58
2021/10/25 02:16:27;;;;;;;2.70;1.10;;;;;;;8.32;42.58;102250.63;117327;1183;22651;-62
2021/10/25 02:18:55;;;;;;;2.90;1.50;;;;;;;8.23;42.74;102250.21;117395;1179;21858;-58
2021/10/25 02:21:24;;;;;;;3.70;1.00;;;;;;;8.15;42.69;102247.21;117427;1184;21861;-58
2021/10/25 02:23:52;;;;;;;3.00;1.30;;;;;;;8.10;42.59;102248.45;117366;1183;23441;-58
2021/10/25 02:26:21;;;;;;;3.30;1.10;;;;;;;8.05;42.43;102250.25;117290;1186;21873;-62
2021/10/25 02:28:49;;;;;;;3.50;1.20;;;;;;;8.00;42.46;102256.05;117339;1186;23904;-62
2021/10/25 02:31:18;;;;;;;3.60;1.20;;;;;;;7.94;42.54;102253.61;117432;1183;23464;-58
2021/10/25 02:33:46;;;;;;;2.30;1.10;;;;;;;7.88;42.71;102252.92;117382;1183;23615;-62
2021/10/25 02:36:14;;;;;;;3.50;1.00;;;;;;;7.82;42.71;102251.68;117447;1183;23216;-57
2021/10/25 02:38:44;;;;;;;3.20;0.80;;;;;;;7.76;42.63;102256.77;117370;1184;23441;-62
2021/10/25 02:41:12;;;;;;;2.90;1.30;;;;;;;7.69;42.48;102259.00;117439;1183;21860;-61
2021/10/25 02:43:40;;;;;;;3.60;1.10;;;;;;;7.62;42.51;102264.23;117470;1186;22895;-62
2021/10/25 02:46:09;;;;;;;4.90;1.40;;;;;;;7.57;42.75;102262.83;117467;1185;21840;-57
2021/10/25 02:48:39;;;;;;;3.30;1.10;;;;;;;7.50;42.52;102265.41;117367;1185;23547;-62
2021/10/25 02:51:07;;;;;;;1.90;0.90;;;;;;;7.41;42.60;102258.15;117375;1185;21858;-57
2021/10/25 02:53:36;;;;;;;2.70;0.90;;;;;;;7.31;42.60;102256.45;117403;1185;21910;-62
2021/10/25 02:56:05;;;;;;;3.40;1.10;;;;;;;7.23;42.54;102253.08;117361;1182;23461;-60
2021/10/25 02:58:33;;;;;;;2.20;1.00;;;;;;;7.17;42.81;102256.17;117296;1184;23442;-60
2021/10/25 03:01:01;;;;;;;4.70;1.10;;;;;;;7.11;42.71;102260.89;117406;1185;21854;-62
2021/10/25 03:03:30;;;;;;;2.40;1.00;;;;;;;7.06;42.67;102262.47;117449;1183;23082;-58
2021/10/25 03:05:58;;;;;;;2.20;1.00;;;;;;;7.01;42.64;102265.30;117356;1186;22911;-57
2021/10/25 03:08:27;;;;;;;2.60;1.30;;;;;;;6.95;42.67;102267.38;117426;1185;23526;-62
2021/10/25 03:10:55;;;;;;;2.40;1.00;;;;;;;6.89;42.65;102268.23;117342;1186;21957;-56
2021/10/25 03:13:24;;;;;;;3.20;1.20;;;;;;;6.83;42.54;102270.61;117316;1185;22834;-62
2021/10/25 03:15:53;;;;;;;1.80;0.90;;;;;;;6.78;42.43;102266.78;117427;1183;21857;-62
2021/10/25 03:18:22;;;;;;;3.40;1.20;;;;;;;6.72;42.73;102270.77;117433;1180;22905;-61
2021/10/25 03:20:51;;;;;;;2.00;1.00;;;;;;;6.66;42.53;102273.89;117425;1185;22809;-61
2021/10/25 03:23:19;;;;;;;3.00;1.50;;;;;;;6.60;42.64;102275.12;117425;1182;21830;-57
2021/10/25 03:25:48;;;;;;;4.40;1.30;;;;;;;6.57;42.57;102272.89;117397;1182;23443;-61
2021/10/25 03:28:16;;;;;;;4.90;1.00;;;;;;;6.51;42.73;102272.01;117300;1185;24222;-61
2021/10/25 03:30:46;;;;;;;3.40;1.30;;;;;;;6.48;42.65;102269.27;117386;1183;23547;-62
2021/10/25 03:33:15;;;;;;;3.50;1.20;;;;;;;6.45;42.47;102268.81;117373;1180;24334;-57
2021/10/25 03:35:43;;;;;;;3.50;1.20;;;;;;;6.40;42.71;102273.02;117364;1182;23648;-57
2021/10/25 03:38:13;;;;;;;2.80;1.20;;;;;;;6.36;42.80;102276.18;117306;1182;21867;-58
2021/10/25 03:40:46;;;;;;;2.20;1.20;;;;;;;6.32;42.38;102273.09;117403;1180;21883;-61
2021/10/25 03:43:14;;;;;;;3.50;1.10;;;;;;;6.26;42.57;102275.31;117405;1183;21854;-59
2021/10/25 03:45:51;;;;;;;3.10;1.30;;;;;;;6.24;42.88;102272.61;117454;1186;22961;-59
2021/10/25 03:48:30;;;;;;;4.60;1.40;;;;;;;6.30;42.68;102271.41;117476;1184;22913;-60
2021/10/25 03:50:58;;;;;;;4.50;1.80;;;;;;;6.35;42.73;102270.73;117510;1185;21903;-58
2021/10/25 03:53:36;;;;;;;4.30;1.10;;;;;;;6.36;42.90;102271.12;117540;1183;23481;-59
2021/10/25 03:57:11;;;;;;;3.90;1.30;;;;;;;6.38;42.85;102271.02;117552;1186;21860;-60
2021/10/25 04:12:42;;;;;;;5.20;1.30;;;;;;;6.40;42.89;102264.47;117445;1185;21854;-60
2021/10/25 04:13:17;;;;;;;3.40;1.10;;;;;;;6.37;42.79;102272.39;117429;1183;23483;-58
2021/10/25 04:29:15;;;;;;;3.10;1.30;;;;;;;6.19;42.89;102282.21;117451;1185;21855;-57
2021/10/25 04:31:43;;;;;;;4.00;1.50;;;;;;;6.16;43.02;102278.94;117438;1180;21952;-60
2021/10/25 04:34:12;;;;;;;3.40;1.50;;;;;;;6.14;43.08;102273.67;117545;1182;23564;-60
2021/10/25 04:36:40;;;;;;;3.60;1.60;;;;;;;6.12;43.15;102277.25;117377;1185;23565;-57
2021/10/25 04:39:12;;;;;;;5.80;2.20;;;;;;;6.10;42.97;102276.81;117376;1183;21865;-58
2021/10/25 04:41:42;;;;;;;7.10;2.70;;;;;;;6.09;42.94;102276.30;117446;1183;21857;-59
2021/10/25 04:44:10;;;;;;;8.80;3.80;;;;;;;6.07;42.89;102278.98;117471;1185;23585;-61
2021/10/25 04:46:39;;;;;;;8.30;3.90;;;;;;;6.04;42.83;102279.39;117529;1182;24006;-57
2021/10/25 04:49:08;;;;;;;7.30;3.70;;;;;;;6.03;43.08;102287.70;117522;1179;23456;-60
2021/10/25 04:51:36;;;;;;;7.50;3.50;;;;;;;6.01;43.00;102283.46;117525;1185;21855;-60
2021/10/25 04:54:04;;;;;;;5.30;2.80;;;;;;;6.00;43.16;102284.58;117430;1182;21855;-61
2021/10/25 04:56:34;;;;;;;5.50;2.60;;;;;;;5.98;43.13;102285.93;117457;1185;23449;-61
2021/10/25 04:59:02;;;;;;;9.00;2.80;;;;;;;5.98;43.15;102285.21;117496;1186;23901;-61
2021/10/25 05:01:30;;;;;;;6.30;2.60;;;;;;;5.98;43.15;102291.85;117508;1182;21845;-57
2021/10/25 05:04:00;;;;;;;3.60;2.00;;;;;;;5.99;43.39;102294.84;117426;1182;23612;-60
2021/10/25 05:06:31;;;;;;;4.40;2.30;;;;;;;6.01;43.45;102302.96;117477;1182;24204;-58
2021/10/25 05:08:59;;;;;;;8.10;3.00;;;;;;;6.03;43.29;102303.55;117497;1185;21895;-58
2021/10/25 05:11:27;;;;;;;11.00;4.00;;;;;;;6.05;43.36;102299.65;117438;1185;21852;-58
2021/10/25 05:13:55;;;;;;;7.80;3.40;;;;;;;6.10;43.22;102297.73;117518;1186;21856;-61
2021/10/25 05:16:24;;;;;;;10.80;4.30;;;;;;;6.15;43.34;102294.77;117530;1184;21876;-61
2021/10/25 05:18:52;;;;;;;10.10;3.90;;;;;;;6.20;43.44;102298.95;117717;1184;23580;-58
2021/10/25 05:21:20;;;;;;;8.30;4.40;;;;;;;6.26;43.34;102300.59;117473;1183;21862;-59
2021/10/25 05:23:49;;;;;;;17.30;5.50;;;;;;;6.32;43.32;102297.48;117506;1184;23625;-57
2021/10/25 05:26:17;;;;;;;14.50;5.50;;;;;;;6.38;43.42;102299.29;117475;1188;21895;-58
2021/10/25 05:28:45;;;;;;;11.50;5.10;;;;;;;6.43;43.72;102304.67;117385;1184;24208;-62
2021/10/25 05:31:14;;;;;;;11.60;4.30;;;;;;;6.50;43.43;102307.38;117431;1182;22619;-57
2021/10/25 05:33:42;;;;;;;11.80;4.30;;;;;;;6.59;43.99;102306.98;117233;1182;23529;-58
2021/10/25 05:36:10;;;;;;;8.60;3.50;;;;;;;6.68;43.80;102310.25;117258;1176;23331;-61
2021/10/25 05:38:39;;;;;;;8.00;3.20;;;;;;;6.77;43.93;102313.00;117500;1182;24161;-59
2021/10/25 05:41:12;;;;;;;7.70;2.70;;;;;;;6.87;43.98;102315.06;117405;1182;24207;-58
2021/10/25 05:43:41;;;;;;;8.80;3.50;;;;;;;6.98;43.75;102314.95;117597;1184;21857;-62
2021/10/25 05:46:09;;;;;;;5.00;1.80;;;;;;;7.10;44.11;102318.66;117472;1183;22915;-62
2021/10/25 05:48:40;;;;;;;4.50;2.10;;;;;;;7.22;44.14;102316.94;117442;1182;21873;-61
2021/10/25 05:51:09;;;;;;;3.80;1.40;;;;;;;7.33;43.87;102311.54;117415;1184;21871;-58
2021/10/25 05:53:37;;;;;;;4.30;1.70;;;;;;;7.46;43.93;102317.36;117449;1183;21977;-61
2021/10/25 05:56:06;;;;;;;4.10;1.40;;;;;;;7.59;44.05;102319.68;117397;1183;22805;-59
2021/10/25 05:58:34;;;;;;;2.40;1.30;;;;;;;7.73;44.02;102321.16;117423;1183;21858;-62
2021/10/25 06:01:06;;;;;;;3.20;1.20;;;;;;;7.87;44.18;102325.44;117382;1185;24139;-61
2021/10/25 06:03:35;;;;;;;2.10;1.00;;;;;;;8.00;44.25;102326.14;117522;1185;23693;-61
2021/10/25 06:06:05;;;;;;;2.50;1.00;;;;;;;8.13;44.08;102327.59;117610;1182;22602;-58
2021/10/25 06:08:33;;;;;;;2.60;1.10;;;;;;;8.27;44.10;102335.16;117562;1183;22976;-62
2021/10/25 06:11:02;;;;;;;3.90;0.70;;;;;;;8.43;44.22;102332.44;117517;1182;22587;-60
2021/10/25 06:13:38;;;;;;;3.40;1.10;;;;;;;8.55;44.31;102333.70;117527;1183;22911;-62
2021/10/25 06:16:14;;;;;;;2.40;1.00;;;;;;;8.67;44.53;102333.64;117484;1185;21848;-59
2021/10/25 06:18:43;;;;;;;3.40;1.00;;;;;;;8.78;44.36;102331.16;117467;1183;23709;-62
2021/10/25 06:21:11;;;;;;;3.20;1.00;;;;;;;8.92;44.47;102335.52;117554;1182;22924;-61
2021/10/25 06:23:40;;;;;;;1.50;0.90;;;;;;;9.08;44.42;102335.25;117604;1182;22915;-58
2021/10/25 06:26:09;;;;;;;2.50;0.90;;;;;;;9.25;44.51;102338.82;117434;1176;23446;-61
2021/10/25 06:28:37;;;;;;;2.30;0.90;;;;;;;9.40;44.47;102339.52;117539;1182;23599;-58
2021/10/25 06:31:08;;;;;;;1.90;1.00;;;;;;;9.56;44.67;102339.21;117479;1184;21852;-62
2021/10/25 06:33:43;;;;;;;2.90;0.70;;;;;;;9.79;44.58;102342.70;117444;1188;21854;-59
2021/10/25 06:36:11;;;;;;;1.50;0.90;;;;;;;9.96;44.60;102342.55;117430;1185;23554;-59
2021/10/25 06:38:51;;;;;;;1.40;0.70;;;;;;;10.11;44.46;102345.33;117435;1179;24215;-62
2021/10/25 06:41:20;;;;;;;2.80;1.20;;;;;;;10.27;44.64;102345.11;117564;1183;24156;-62
2021/10/25 06:43:49;;;;;;;3.60;0.90;;;;;;;10.40;44.42;102342.25;117446;1185;21857;-62
2021/10/25 06:46:17;;;;;;;2.40;1.30;;;;;;;10.55;44.48;102347.11;117455;1185;21940;-59
2021/10/25 06:48:46;;;;;;;3.30;1.80;;;;;;;10.66;44.57;102350.11;117437;1184;21875;-59
2021/10/25 06:51:14;;;;;;;3.70;1.70;;;;;;;10.76;44.49;102348.73;117437;1185;21864;-61
2021/10/25 06:53:43;;;;;;;2.90;1.30;;;;;;;10.87;44.51;102351.04;117412;1185;23465;-63
2021/10/25 06:56:12;;;;;;;2.80;1.50;;;;;;;10.99;44.46;102348.26;117429;1186;22985;-59
2021/10/25 06:58:40;;;;;;;4.10;1.90;;;;;;;11.14;44.61;102349.73;117383;1182;23468;-59
2021/10/25 07:01:09;;;;;;;3.30;1.80;;;;;;;11.31;44.54;102345.64;117365;1184;22528;-58
2021/10/25 07:03:38;;;;;;;5.90;1.60;;;;;;;11.51;44.55;102343.14;117539;1183;21871;-64
2021/10/25 07:06:13;;;;;;;3.20;1.60;;;;;;;11.65;44.49;102343.52;117485;1185;23458;-58
2021/10/25 07:08:43;;;;;;;2.90;1.20;;;;;;;11.78;44.39;102345.45;117408;1181;21863;-64
2021/10/25 07:11:14;;;;;;;2.70;1.20;;;;;;;11.86;44.33;102344.16;117460;1184;22619;-64
2021/10/25 07:13:47;;;;;;;4.70;1.10;;;;;;;11.96;44.41;102343.42;117433;1185;22914;-64
2021/10/25 07:16:55;;;;;;;3.00;1.00;;;;;;;12.14;44.46;102341.73;117479;1183;22618;-57
2021/10/25 07:19:25;;;;;;;3.60;1.50;;;;;;;12.31;44.55;102346.17;117328;1184;22059;-63
2021/10/25 08:11:09;;;;;;;2.60;1.00;;;;;;;15.03;43.95;102324.59;117521;1185;21852;-64
2021/10/25 08:13:45;;;;;;;2.50;1.20;;;;;;;14.99;43.74;102322.83;117520;1183;21854;-58
2021/10/25 08:16:32;;;;;;;2.70;1.40;;;;;;;14.99;43.90;102319.30;117531;1176;21865;-65
2021/10/25 08:22:02;;;;;;;4.20;1.50;;;;;;;15.23;43.88;102308.14;117330;1186;23442;-58
2021/10/25 08:24:44;;;;;;;2.30;1.10;;;;;;;15.41;43.88;102313.79;117413;1182;23457;-58
2021/10/25 08:27:14;;;;;;;3.70;1.20;;;;;;;15.46;43.64;102311.99;117484;1182;23440;-58
2021/10/25 08:29:45;;;;;;;1.60;0.80;;;;;;;15.50;43.71;102311.81;117495;1183;23900;-58
2021/10/25 08:32:44;;;;;;;3.60;1.40;;;;;;;15.52;43.66;102311.29;117498;1185;22913;-64
2021/10/25 08:40:36;;;;;;;2.90;1.10;;;;;;;16.04;43.63;102321.95;117511;1183;23983;-59
2021/10/25 08:43:05;;;;;;;3.20;1.10;;;;;;;16.07;43.56;102321.41;117426;1182;22903;-58
2021/10/25 08:45:34;;;;;;;2.50;1.00;;;;;;;16.07;43.34;102322.30;117488;1185;22496;-64
2021/10/25 08:48:04;;;;;;;3.60;1.00;;;;;;;16.09;43.55;102323.88;117373;1183;22910;-64
2021/10/25 08:50:36;;;;;;;2.90;1.10;;;;;;;16.20;43.42;102324.54;117513;1185;24152;-58
2021/10/25 08:53:06;;;;;;;4.50;1.10;;;;;;;16.25;43.26;102325.05;117439;1185;24203;-58
2021/10/25 08:55:35;;;;;;;3.20;1.20;;;;;;;16.27;43.16;102320.07;117525;1185;21858;-64
2021/10/25 08:58:05;;;;;;;2.90;1.10;;;;;;;16.25;43.18;102320.44;117555;1182;24142;-65
2021/10/25 09:00:52;;;;;;;4.70;0.90;;;;;;;16.30;43.20;102320.77;117433;1183;21854;-58
2021/10/25 09:03:21;;;;;;;3.50;1.40;;;;;;;16.54;43.49;102326.30;117542;1183;21860;-57
2021/10/25 09:05:58;;;;;;;4.10;1.30;;;;;;;16.66;43.21;102320.91;117550;1184;23462;-59
2021/10/25 09:08:26;;;;;;;3.90;1.40;;;;;;;16.72;43.15;102325.30;117533;1182;24143;-66
2021/10/25 09:10:55;;;;;;;2.70;1.00;;;;;;;16.67;42.97;102317.72;117561;1185;22797;-65
2021/10/25 09:13:26;;;;;;;4.50;1.50;;;;;;;16.63;42.86;102313.48;117556;1186;22840;-65
2021/10/25 09:15:58;;;;;;;2.90;1.40;;;;;;;16.73;43.09;102317.67;117482;1183;21976;-64
2021/10/25 09:18:31;;;;;;;5.20;1.50;;;;;;;16.79;42.96;102318.69;117389;1183;24155;-58
2021/10/25 09:21:09;;;;;;;4.60;1.10;;;;;;;16.61;42.94;102316.85;117429;1183;21950;-59
2021/10/25 09:23:40;;;;;;;3.40;1.30;;;;;;;16.51;43.01;102320.48;117414;1182;21848;-66
2021/10/25 09:26:11;;;;;;;2.50;1.30;;;;;;;16.49;43.13;102318.02;117547;1184;21855;-65
2021/10/25 09:28:54;;;;;;;8.90;2.00;;;;;;;16.48;43.08;102320.85;117519;1183;22100;-65
2021/10/25 09:31:27;;;;;;;4.10;1.10;;;;;;;16.48;42.99;102320.14;117538;1183;23535;-58
2021/10/25 09:34:00;;;;;;;2.80;1.40;;;;;;;16.55;43.04;102319.91;117540;1183;21874;-66
2021/10/25 09:36:47;;;;;;;3.50;1.50;;;;;;;16.66;42.99;102313.81;117618;1182;21860;-64
2021/10/25 09:39:25;;;;;;;2.60;1.10;;;;;;;16.69;42.78;102307.42;117524;1186;21858;-64
2021/10/25 09:50:06;;;;;;;2.30;1.30;;;;;;;17.07;42.98;102301.83;117348;1185;21867;-58
2021/10/25 09:52:37;;;;;;;3.30;1.20;;;;;;;17.15;42.89;102303.55;117331;1183;22913;-58
2021/10/25 09:55:10;;;;;;;2.20;1.20;;;;;;;17.20;42.79;102299.59;117397;1182;24166;-65
2021/10/25 10:00:09;;;;;;;3.10;1.10;;;;;;;17.29;42.83;102299.14;117341;1185;22958;-64
2021/10/25 10:02:38;;;;;;;4.60;1.30;;;;;;;17.45;42.98;102295.08;117386;1183;21859;-58
2021/10/25 10:05:08;;;;;;;2.30;1.00;;;;;;;17.58;42.88;102290.51;117365;1185;22645;-65
2021/10/25 10:07:37;;;;;;;1.90;1.00;;;;;;;17.75;42.93;102283.92;117413;1185;21864;-57
2021/10/25 10:10:07;;;;;;;2.40;1.20;;;;;;;17.91;42.75;102275.73;117387;1183;21926;-58
2021/10/25 10:12:35;;;;;;;3.20;0.90;;;;;;;17.96;42.59;102279.92;117360;1183;22864;-57
2021/10/25 10:15:04;;;;;;;2.10;0.90;;;;;;;18.10;42.82;102280.30;117408;1185;21855;-64
2021/10/25 10:17:43;;;;;;;3.00;1.10;;;;;;;18.36;42.88;102272.67;117372;1183;22651;-64
2021/10/25 10:20:32;;;;;;;2.30;1.10;;;;;;;18.66;43.01;102275.40;117380;1182;21858;-64
2021/10/25 10:23:05;;;;;;;2.30;0.90;;;;;;;18.98;43.13;102276.85;117374;1185;21864;-57
2021/10/25 10:25:38;;;;;;;4.20;1.10;;;;;;;19.21;43.06;102277.35;117367;1185;21868;-65
2021/10/25 10:28:11;;;;;;;1.80;1.10;;;;;;;19.45;42.91;102278.33;117387;1185;22646;-64
2021/10/25 10:30:56;;;;;;;2.00;1.00;;;;;;;19.63;42.76;102277.80;117371;1184;22075;-59
2021/10/25 10:33:40;;;;;;;2.50;1.20;;;;;;;19.69;42.50;102276.24;117414;1185;21857;-64
2021/10/25 10:36:21;;;;;;;10.30;1.30;;;;;;;19.60;42.32;102272.35;117336;1182;21857;-57
2021/10/25 10:38:54;;;;;;;1.60;1.00;;;;;;;19.65;42.58;102267.42;117384;1185;21861;-64
2021/10/25 10:41:44;;;;;;;2.80;1.10;;;;;;;19.83;42.62;102268.69;117304;1184;23544;-57
2021/10/25 10:44:16;;;;;;;1.90;1.00;;;;;;;20.01;42.75;102265.46;117445;1184;23475;-65
2021/10/25 10:46:54;;;;;;;8.60;1.40;;;;;;;20.18;42.61;102259.21;117369;1182;21858;-57
2021/10/25 10:49:43;;;;;;;4.60;1.00;;;;;;;20.35;42.69;102254.71;117377;1184;23445;-64
2021/10/25 10:55:05;;;;;;;2.30;1.20;;;;;;;20.38;42.12;102257.31;117369;1176;23551;-58
2021/10/25 11:00:28;;;;;;;3.10;1.30;;;;;;;20.19;42.24;102254.55;117380;1185;23558;-57
2021/10/25 11:02:58;;;;;;;2.20;1.10;;;;;;;20.31;42.31;102249.64;117352;1185;23474;-58
2021/10/25 11:05:29;;;;;;;4.50;1.00;;;;;;;20.43;42.24;102251.50;117448;1182;22094;-65
2021/10/25 11:08:15;;;;;;;2.30;1.00;;;;;;;20.39;42.13;102249.80;117355;1184;21858;-58
2021/10/25 11:10:46;;;;;;;3.00;1.10;;;;;;;20.29;42.09;102249.88;117338;1185;21971;-58
2021/10/25 11:13:23;;;;;;;1.80;1.10;;;;;;;20.34;42.11;102249.73;117411;1183;22985;-64
2021/10/25 11:16:09;;;;;;;5.00;1.20;;;;;;;20.48;42.22;102241.77;117340;1185;21860;-56
2021/10/25 11:18:47;;;;;;;2.50;1.50;;;;;;;20.53;42.05;102242.70;117568;1179;22645;-64
2021/10/25 11:21:23;;;;;;;1.90;1.20;;;;;;;20.48;41.95;102243.70;117375;1185;21864;-57
2021/10/25 11:23:58;;;;;;;2.20;1.30;;;;;;;20.47;41.93;102239.82;117454;1182;22159;-58
2021/10/25 11:26:28;;;;;;;2.80;1.20;;;;;;;20.48;41.93;102236.23;117393;1182;22785;-57
2021/10/25 11:29:05;;;;;;;3.10;1.20;;;;;;;20.46;41.77;102234.30;117444;1185;21858;-63
2021/10/25 11:31:48;;;;;;;2.00;1.30;;;;;;;20.40;41.72;102232.49;117402;1184;21855;-62
2021/10/25 11:34:21;;;;;;;2.20;1.40;;;;;;;20.38;41.61;102235.94;117357;1184;21864;-56
2021/10/25 11:37:00;;;;;;;2.80;1.10;;;;;;;20.31;41.77;102233.22;117398;1183;21858;-62
2021/10/25 11:39:41;;;;;;;2.90;1.20;;;;;;;20.41;41.86;102230.33;117411;1182;23547;-56
2021/10/25 11:42:11;;;;;;;;;;;;;;;20.60;41.99;102224.88;117409;1185;23449;-55
2021/10/25 11:44:40;;;;;;;4.00;1.70;;;;;;;20.78;42.07;102220.16;117380;1183;21855;-55
2021/10/25 11:47:27;;;;;;;3.90;2.30;;;;;;;20.96;41.94;102219.71;117342;1185;21855;-62
2021/10/25 11:50:11;;;;;;;4.10;1.80;;;;;;;21.12;41.89;102218.04;118357;1182;21875;-56
2021/10/25 11:52:41;;;;;;;4.00;1.80;;;;;;;21.25;41.84;102213.94;117445;1183;21970;-56
2021/10/25 11:55:11;;;;;;;2.70;1.40;;;;;;;21.32;41.81;102211.77;117445;1179;22721;-62
2021/10/25 11:57:50;;;;;;;4.20;1.70;;;;;;;21.40;41.81;102209.39;117426;1183;24146;-56
2021/10/25 12:00:19;;;;;;;4.00;1.50;;;;;;;21.48;41.73;102207.02;117441;1183;22166;-64
2021/10/25 12:02:47;;;;;;;5.00;1.70;;;;;;;21.54;41.70;102208.09;117386;1182;22951;-57
2021/10/25 12:05:26;;;;;;;3.80;1.40;;;;;;;21.58;41.66;102209.41;117383;1182;21872;-57
2021/10/25 12:07:55;;;;;;;3.00;1.50;;;;;;;21.61;41.53;102207.91;117394;1182;21845;-56
2021/10/25 12:10:25;;;;;;;6.40;1.80;;;;;;;21.61;41.41;102207.73;117421;1183;21895;-63
2021/10/25 12:12:54;;;;;;;4.00;1.80;;;;;;;21.58;41.36;102214.61;117400;1184;21857;-62
2021/10/25 12:15:24;;;;;;;4.70;1.30;;;;;;;21.55;41.33;102208.96;117365;1183;21993;-57
2021/10/25 12:17:57;;;;;;;5.10;1.30;;;;;;;21.56;41.29;102208.94;117441;1182;22915;-57
2021/10/25 12:20:30;;;;;;;6.90;1.90;;;;;;;21.50;40.91;102205.37;117454;1186;21858;-59
2021/10/25 12:23:19;;;;;;;9.50;2.70;;;;;;;21.29;40.76;102206.30;117406;1185;21855;-62
2021/10/25 12:25:55;;;;;;;12.00;2.90;;;;;;;21.24;41.01;102208.92;117439;1179;21858;-57
2021/10/25 12:28:24;;;;;;;10.60;2.10;;;;;;;21.28;41.07;102210.09;117376;1182;21929;-57
2021/10/25 12:31:10;;;;;;;11.60;3.10;;;;;;;21.30;41.03;102210.21;117403;1182;22960;-63
2021/10/25 12:33:39;;;;;;;7.70;1.80;;;;;;;21.28;40.95;102211.86;117445;1182;22915;-64
2021/10/25 12:36:15;;;;;;;3.70;1.80;;;;;;;21.23;40.71;102214.14;117385;1184;22928;-62
2021/10/25 12:38:45;;;;;;;18.00;2.50;;;;;;;21.07;40.67;102213.69;117408;1185;23705;-56
2021/10/25 12:41:14;;;;;;;6.30;1.60;;;;;;;20.99;40.70;102209.98;117441;1176;23437;-63
2021/10/25 12:43:46;;;;;;;6.80;1.70;;;;;;;20.95;40.63;102208.82;117398;1185;21871;-64
2021/10/25 12:46:18;;;;;;;6.70;1.80;;;;;;;20.89;40.71;102212.20;117442;1182;23630;-63
2021/10/25 12:48:50;;;;;;;7.60;1.80;;;;;;;20.90;40.75;102211.83;117388;1182;22815;-63
2021/10/25 12:51:20;;;;;;;3.40;1.80;;;;;;;20.93;40.51;102212.48;117386;1182;22442;-63
2021/10/25 12:53:51;;;;;;;5.40;1.70;;;;;;;20.72;40.21;102216.38;117379;1182;21858;-63
2021/10/25 12:56:26;;;;;;;4.90;1.80;;;;;;;20.52;40.30;102214.36;117402;1184;21873;-63
2021/10/25 12:59:06;;;;;;;6.40;1.70;;;;;;;20.47;40.42;102206.66;117449;1182;21898;-63
2021/10/25 13:01:35;;;;;;;8.80;1.40;;;;;;;20.48;40.45;102202.70;117340;1182;22638;-63
2021/10/25 13:04:05;;;;;;;5.80;1.70;;;;;;;20.50;40.48;102202.29;117347;1183;23820;-57
2021/10/25 13:06:35;;;;;;;4.40;1.70;;;;;;;20.52;40.41;102201.19;118758;1182;22619;-62
2021/10/25 13:09:08;;;;;;;3.70;1.30;;;;;;;20.52;40.38;102201.89;117230;1182;22302;-56
2021/10/25 13:11:38;;;;;;;3.70;1.50;;;;;;;20.50;40.29;102199.09;117412;1185;23520;-56
2021/10/25 13:14:06;;;;;;;6.80;1.50;;;;;;;20.39;39.96;102201.13;117366;1183;21999;-63
2021/10/25 13:16:45;;;;;;;4.50;1.70;;;;;;;20.19;39.97;102200.36;117350;1182;22631;-57
2021/10/25 13:19:17;;;;;;;4.50;1.40;;;;;;;20.07;39.68;102195.83;117397;1181;22906;-56
2021/10/25 13:21:47;;;;;;;8.00;1.70;;;;;;;19.74;39.55;102195.30;117406;1182;23469;-60